createdAt,value
2023-03-22T05:00:08.690Z,9.70
2023-03-22T05:01:08.686Z,9.81
2023-03-22T05:03:08.688Z,9.86
2023-03-22T05:04:08.648Z,9.77
2023-03-22T05:05:08.638Z,9.86
2023-03-22T05:06:08.635Z,9.77
2023-03-22T05:07:08.619Z,9.73
2023-03-22T05:08:08.605Z,9.72
2023-03-22T05:10:08.595Z,9.70
2023-03-22T05:11:08.573Z,9.69
2023-03-22T05:12:08.566Z,9.59
2023-03-22T05:13:08.556Z,9.70
2023-03-22T05:14:08.664Z,9.64
2023-03-22T05:15:08.732Z,9.59
2023-03-22T05:16:08.628Z,9.69
2023-03-22T05:17:08.509Z,9.69
2023-03-22T05:18:08.500Z,9.66
2023-03-22T05:19:08.489Z,9.70
2023-03-22T05:20:08.485Z,9.70
2023-03-22T05:21:08.471Z,9.66
2023-03-22T05:22:08.460Z,9.66
2023-03-22T05:23:08.447Z,9.67
2023-03-22T05:24:08.439Z,9.62
2023-03-22T05:25:08.454Z,9.66
2023-03-22T05:26:08.417Z,9.66
2023-03-22T05:29:08.383Z,9.86
2023-03-22T05:30:08.378Z,9.86
2023-03-22T05:31:08.439Z,9.92
2023-03-22T05:32:08.353Z,9.95
2023-03-22T05:33:08.343Z,9.96
2023-03-22T05:35:08.327Z,9.99
2023-03-22T05:36:08.311Z,10.04
2023-03-22T05:38:08.298Z,9.92
2023-03-22T05:39:08.292Z,9.89
2023-03-22T05:41:08.293Z,10.01
2023-03-22T05:42:08.257Z,9.92
2023-03-22T05:43:08.238Z,9.96
2023-03-22T05:44:08.232Z,9.89
2023-03-22T05:45:08.220Z,9.85
2023-03-22T05:46:08.210Z,9.96
2023-03-22T05:47:08.198Z,10.06
2023-03-22T05:49:09.097Z,10.06
2023-03-22T05:50:08.167Z,10.02
2023-03-22T05:51:08.160Z,10.07
2023-03-22T05:52:08.153Z,10.13
2023-03-22T05:54:08.128Z,10.04
2023-03-22T05:55:08.123Z,10.02
2023-03-22T05:56:08.132Z,10.09
2023-03-22T05:57:08.117Z,10.11
2023-03-22T05:58:08.085Z,10.13
2023-03-22T05:59:08.083Z,10.17
2023-03-22T06:00:08.071Z,10.26
2023-03-22T06:02:08.072Z,10.32
2023-03-22T06:04:08.023Z,10.32
2023-03-22T06:05:08.012Z,10.39
2023-03-22T06:06:08.007Z,10.42
2023-03-22T06:07:07.991Z,10.46
2023-03-22T06:08:08.002Z,10.53
2023-03-22T06:09:16.946Z,10.59
2023-03-22T06:10:08.999Z,10.54
2023-03-22T06:11:08.154Z,10.53
2023-03-22T06:12:07.941Z,10.67
2023-03-22T06:13:08.072Z,10.72
2023-03-22T06:14:07.919Z,10.71
2023-03-22T06:15:07.916Z,10.75
2023-03-22T06:16:07.946Z,10.72
2023-03-22T06:17:07.886Z,10.74
2023-03-22T06:19:07.865Z,10.75
2023-03-22T06:20:07.857Z,10.79
2023-03-22T06:21:07.845Z,10.80
2023-03-22T06:22:07.837Z,10.77
2023-03-22T06:23:07.821Z,10.77
2023-03-22T06:24:07.813Z,10.79
2023-03-22T06:25:07.802Z,10.79
2023-03-22T06:26:07.792Z,10.79
2023-03-22T06:27:07.783Z,10.80
2023-03-22T06:28:08.860Z,10.86
2023-03-22T06:29:07.774Z,10.98
2023-03-22T06:30:07.747Z,11.00
2023-03-22T06:31:07.788Z,11.07
2023-03-22T06:32:07.725Z,11.00
2023-03-22T06:34:07.700Z,10.98
2023-03-22T06:36:07.678Z,11.00
2023-03-22T06:37:07.665Z,10.98
2023-03-22T06:38:07.656Z,11.00
2023-03-22T06:39:07.651Z,10.98
2023-03-22T06:40:07.641Z,10.93
2023-03-22T06:41:07.619Z,10.97
2023-03-22T06:42:07.614Z,10.97
2023-03-22T06:43:07.657Z,10.94
2023-03-22T06:44:07.593Z,10.92
2023-03-22T06:45:07.604Z,10.90
2023-03-22T06:46:07.598Z,10.94
2023-03-22T06:47:07.555Z,10.90
2023-03-22T06:49:07.534Z,11.04
2023-03-22T06:50:07.726Z,11.10
2023-03-22T06:51:07.515Z,11.12
2023-03-22T06:52:09.303Z,11.15
2023-03-22T06:54:07.483Z,11.21
2023-03-22T06:55:07.472Z,11.23
2023-03-22T06:56:07.465Z,11.19
2023-03-22T06:57:07.449Z,11.24
2023-03-22T06:58:07.437Z,11.26
2023-03-22T06:59:07.425Z,11.23
2023-03-22T07:00:07.414Z,11.24
2023-03-22T07:01:07.457Z,11.23
2023-03-22T07:02:07.405Z,11.19
2023-03-22T07:04:07.449Z,11.16
2023-03-22T07:05:07.370Z,11.15
2023-03-22T07:06:07.359Z,11.18
2023-03-22T07:07:07.347Z,11.16
2023-03-22T07:08:07.336Z,11.12
2023-03-22T07:10:07.313Z,11.08
2023-03-22T07:11:07.309Z,11.07
2023-03-22T07:12:07.493Z,11.08
2023-03-22T07:14:07.286Z,11.05
2023-03-22T07:15:07.257Z,11.07
2023-03-22T07:16:07.284Z,11.05
2023-03-22T07:17:07.304Z,11.07
2023-03-22T07:18:07.228Z,11.01
2023-03-22T07:19:07.219Z,11.00
2023-03-22T07:20:07.207Z,11.01
2023-03-22T07:21:07.407Z,11.02
2023-03-22T07:22:07.184Z,11.05
2023-03-22T07:23:07.175Z,11.11
2023-03-22T07:25:07.159Z,11.18
2023-03-22T07:26:07.141Z,11.19
2023-03-22T07:27:07.132Z,11.24
2023-03-22T07:28:07.125Z,11.31
2023-03-22T07:29:07.156Z,11.39
2023-03-22T07:30:09.347Z,11.49
2023-03-22T07:31:07.098Z,11.60
2023-03-22T07:32:07.161Z,11.67
2023-03-22T07:34:07.075Z,11.70
2023-03-22T07:35:07.045Z,11.77
2023-03-22T07:36:07.038Z,11.88
2023-03-22T07:38:07.819Z,11.93
2023-03-22T07:39:07.007Z,11.96
2023-03-22T07:40:06.997Z,11.88
2023-03-22T07:42:06.983Z,12.04
2023-03-22T07:43:06.971Z,12.07
2023-03-22T07:45:08.117Z,11.90
2023-03-22T07:46:07.019Z,12.11
2023-03-22T07:48:06.950Z,12.32
2023-03-22T07:49:06.942Z,12.02
2023-03-22T07:50:06.906Z,12.11
2023-03-22T07:51:06.883Z,12.14
2023-03-22T07:52:06.882Z,12.24
2023-03-22T07:53:06.867Z,12.07
2023-03-22T07:54:07.818Z,12.03
2023-03-22T07:55:06.842Z,11.96
2023-03-22T07:56:06.831Z,11.97
2023-03-22T07:57:06.856Z,11.99
2023-03-22T07:58:06.809Z,11.95
2023-03-22T08:00:06.805Z,11.81
2023-03-22T08:01:06.784Z,11.79
2023-03-22T08:02:06.865Z,11.75
2023-03-22T08:03:06.878Z,11.77
2023-03-22T08:04:06.755Z,11.74
2023-03-22T08:06:06.729Z,11.64
2023-03-22T08:07:06.719Z,11.57
2023-03-22T08:08:06.706Z,11.62
2023-03-22T08:09:06.698Z,11.66
2023-03-22T08:10:06.709Z,11.72
2023-03-22T08:12:06.865Z,11.74
2023-03-22T08:13:06.710Z,11.77
2023-03-22T08:14:06.845Z,11.75
2023-03-22T08:15:06.633Z,11.82
2023-03-22T08:17:06.616Z,11.93
2023-03-22T08:18:06.601Z,11.92
2023-03-22T08:19:06.594Z,11.85
2023-03-22T08:20:06.582Z,11.88
2023-03-22T08:22:06.559Z,11.90
2023-03-22T08:23:06.549Z,11.93
2023-03-22T08:24:06.536Z,11.97
2023-03-22T08:25:06.528Z,11.95
2023-03-22T08:26:06.512Z,11.93
2023-03-22T08:27:06.687Z,11.95
2023-03-22T08:28:06.491Z,12.06
2023-03-22T08:29:06.483Z,12.17
2023-03-22T08:31:06.460Z,12.07
2023-03-22T08:32:06.530Z,12.07
2023-03-22T08:33:06.447Z,12.06
2023-03-22T08:34:06.431Z,12.10
2023-03-22T08:36:06.408Z,12.14
2023-03-22T08:37:06.418Z,12.17
2023-03-22T08:38:06.389Z,12.14
2023-03-22T08:39:06.379Z,11.95
2023-03-22T08:40:06.469Z,11.82
2023-03-22T08:41:06.367Z,11.75
2023-03-22T08:42:06.345Z,11.81
2023-03-22T08:43:06.338Z,11.79
2023-03-22T08:45:06.315Z,11.77
2023-03-22T08:46:06.327Z,11.77
2023-03-22T08:47:06.302Z,11.79
2023-03-22T08:48:06.311Z,11.82
2023-03-22T08:49:06.275Z,11.88
2023-03-22T08:50:06.262Z,11.92
2023-03-22T08:51:06.257Z,11.97
2023-03-22T08:52:06.250Z,12.00
2023-03-22T08:53:06.260Z,11.97
2023-03-22T08:54:06.216Z,11.90
2023-03-22T08:55:06.207Z,11.92
2023-03-22T08:56:06.196Z,11.96
2023-03-22T08:57:06.185Z,12.00
2023-03-22T08:59:06.162Z,12.04
2023-03-22T09:00:06.157Z,12.17
2023-03-22T09:01:06.229Z,12.22
2023-03-22T09:02:06.250Z,12.20
2023-03-22T09:03:06.124Z,12.11
2023-03-22T09:04:06.228Z,12.15
2023-03-22T09:05:06.102Z,12.22
2023-03-22T09:06:06.098Z,12.15
2023-03-22T09:07:06.080Z,12.15
2023-03-22T09:08:06.814Z,12.25
2023-03-22T09:09:06.081Z,12.21
2023-03-22T09:10:06.048Z,12.35
2023-03-22T09:12:06.040Z,12.57
2023-03-22T09:13:06.025Z,12.40
2023-03-22T09:14:06.003Z,12.39
2023-03-22T09:15:06.027Z,12.50
2023-03-22T09:16:05.997Z,12.47
2023-03-22T09:17:05.986Z,12.33
2023-03-22T09:18:05.966Z,12.43
2023-03-22T09:19:05.959Z,12.60
2023-03-22T09:21:06.962Z,12.96
2023-03-22T09:23:05.930Z,12.57
2023-03-22T09:25:05.912Z,12.57
2023-03-22T09:26:05.872Z,12.67
2023-03-22T09:27:05.861Z,13.16
2023-03-22T09:28:06.183Z,12.88
2023-03-22T09:29:05.858Z,12.89
2023-03-22T09:30:05.831Z,12.94
2023-03-22T09:31:05.846Z,12.92
2023-03-22T09:32:05.809Z,12.89
2023-03-22T09:34:05.791Z,12.61
2023-03-22T09:35:05.778Z,12.40
2023-03-22T09:36:05.796Z,12.37
2023-03-22T09:38:05.746Z,12.57
2023-03-22T09:40:05.733Z,12.45
2023-03-22T09:41:05.737Z,12.50
2023-03-22T09:42:05.714Z,12.53
2023-03-22T09:43:05.694Z,12.47
2023-03-22T09:44:05.692Z,12.50
2023-03-22T09:45:05.671Z,12.51
2023-03-22T09:46:05.713Z,12.55
2023-03-22T09:47:05.650Z,12.47
2023-03-22T09:48:05.708Z,12.48
2023-03-22T09:49:05.627Z,12.40
2023-03-22T09:50:05.616Z,12.39
2023-03-22T09:51:05.608Z,12.35
2023-03-22T09:52:05.620Z,12.45
2023-03-22T09:53:05.589Z,12.37
2023-03-22T09:54:05.574Z,12.40
2023-03-22T09:55:05.563Z,12.43
2023-03-22T09:56:05.552Z,12.55
2023-03-22T09:57:05.576Z,12.57
2023-03-22T09:58:05.533Z,12.47
2023-03-22T09:59:05.522Z,12.50
2023-03-22T10:00:05.517Z,12.57
2023-03-22T10:01:05.621Z,12.61
2023-03-22T10:03:05.477Z,12.66
2023-03-22T10:04:05.498Z,12.55
2023-03-22T10:06:05.666Z,12.50
2023-03-22T10:07:05.433Z,12.54
2023-03-22T10:08:05.421Z,12.50
2023-03-22T10:09:05.421Z,12.43
2023-03-22T10:10:05.400Z,12.48
2023-03-22T10:11:05.390Z,12.40
2023-03-22T10:12:05.388Z,12.37
2023-03-22T10:13:05.399Z,12.37
2023-03-22T10:14:05.363Z,12.45
2023-03-22T10:15:05.343Z,12.51
2023-03-22T10:17:05.324Z,12.54
2023-03-22T10:18:05.311Z,12.54
2023-03-22T10:19:05.299Z,12.58
2023-03-22T10:20:05.288Z,12.55
2023-03-22T10:21:05.280Z,12.51
2023-03-22T10:22:05.265Z,12.66
2023-03-22T10:23:05.320Z,12.88
2023-03-22T10:24:05.444Z,12.91
2023-03-22T10:25:05.234Z,12.88
2023-03-22T10:26:05.223Z,12.80
2023-03-22T10:28:05.201Z,12.61
2023-03-22T10:29:05.410Z,12.51
2023-03-22T10:30:05.182Z,12.55
2023-03-22T10:31:05.990Z,12.74
2023-03-22T10:32:05.154Z,12.80
2023-03-22T10:34:05.136Z,13.06
2023-03-22T10:35:05.189Z,13.06
2023-03-22T10:36:05.125Z,12.98
2023-03-22T10:37:05.115Z,12.95
2023-03-22T10:38:05.091Z,13.14
2023-03-22T10:39:05.083Z,13.29
2023-03-22T10:40:05.071Z,13.09
2023-03-22T10:41:05.070Z,13.01
2023-03-22T10:42:05.055Z,13.06
2023-03-22T10:43:05.042Z,13.21
2023-03-22T10:44:05.028Z,13.31
2023-03-22T10:45:05.036Z,13.35
2023-03-22T10:46:05.005Z,13.34
2023-03-22T10:47:05.028Z,13.29
2023-03-22T10:49:04.981Z,13.03
2023-03-22T10:50:04.966Z,12.85
2023-03-22T10:51:04.994Z,12.79
2023-03-22T10:53:04.934Z,12.79
2023-03-22T10:54:04.922Z,12.70
2023-03-22T10:55:04.913Z,12.76
2023-03-22T10:56:04.900Z,12.81
2023-03-22T10:57:04.900Z,12.91
2023-03-22T10:58:04.886Z,12.88
2023-03-22T10:59:04.871Z,12.88
2023-03-22T11:00:04.856Z,12.84
2023-03-22T11:01:05.064Z,12.96
2023-03-22T11:02:05.112Z,12.88
2023-03-22T11:03:04.962Z,12.76
2023-03-22T11:04:04.818Z,12.80
2023-03-22T11:05:04.818Z,12.81
2023-03-22T11:06:04.797Z,12.85
2023-03-22T11:07:04.796Z,12.87
2023-03-22T11:08:04.776Z,12.85
2023-03-22T11:09:04.765Z,12.84
2023-03-22T11:10:04.753Z,12.91
2023-03-22T11:11:04.747Z,13.07
2023-03-22T11:12:04.733Z,12.99
2023-03-22T11:13:04.723Z,13.09
2023-03-22T11:14:04.709Z,12.98
2023-03-22T11:15:04.700Z,12.89
2023-03-22T11:16:04.720Z,12.92
2023-03-22T11:17:04.696Z,12.81
2023-03-22T11:19:04.654Z,12.89
2023-03-22T11:20:07.203Z,12.80
2023-03-22T11:21:04.639Z,12.76
2023-03-22T11:22:04.619Z,12.66
2023-03-22T11:23:04.613Z,12.57
2023-03-22T11:24:04.600Z,12.74
2023-03-22T11:25:04.586Z,12.70
2023-03-22T11:26:04.576Z,12.81
2023-03-22T11:27:04.568Z,12.76
2023-03-22T11:28:04.567Z,12.76
2023-03-22T11:29:04.549Z,12.73
2023-03-22T11:30:04.603Z,12.79
2023-03-22T11:31:04.528Z,12.63
2023-03-22T11:32:04.573Z,12.67
2023-03-22T11:34:04.488Z,12.66
2023-03-22T11:35:04.480Z,12.61
2023-03-22T11:36:04.559Z,12.58
2023-03-22T11:37:04.458Z,12.50
2023-03-22T11:38:04.450Z,12.55
2023-03-22T11:39:04.447Z,12.53
2023-03-22T11:40:04.428Z,12.43
2023-03-22T11:42:04.606Z,12.36
2023-03-22T11:43:04.397Z,12.45
2023-03-22T11:44:04.393Z,12.47
2023-03-22T11:45:04.378Z,12.43
2023-03-22T11:46:04.463Z,12.40
2023-03-22T11:47:04.359Z,12.39
2023-03-22T11:48:04.404Z,12.45
2023-03-22T11:49:04.413Z,12.37
2023-03-22T11:50:04.330Z,12.33
2023-03-22T11:51:04.320Z,12.29
2023-03-22T11:52:05.400Z,12.33
2023-03-22T11:53:04.296Z,12.35
2023-03-22T11:54:04.282Z,12.39
2023-03-22T11:56:04.273Z,12.47
2023-03-22T11:57:04.294Z,12.45
2023-03-22T11:58:04.238Z,12.43
2023-03-22T11:59:04.264Z,12.37
2023-03-22T12:01:04.209Z,12.28
2023-03-22T12:02:04.261Z,12.28
2023-03-22T12:03:04.266Z,12.21
2023-03-22T12:04:04.241Z,12.12
2023-03-22T12:05:04.219Z,12.10
2023-03-22T12:06:04.250Z,12.11
2023-03-22T12:07:04.164Z,12.04
2023-03-22T12:10:04.129Z,11.97
2023-03-22T12:11:04.098Z,11.99
2023-03-22T12:12:04.094Z,12.02
2023-03-22T12:13:04.076Z,12.03
2023-03-22T12:14:04.070Z,12.04
2023-03-22T12:15:04.053Z,12.11
2023-03-22T12:16:04.099Z,12.17
2023-03-22T12:17:04.041Z,12.21
2023-03-22T12:19:04.016Z,12.28
2023-03-22T12:21:04.020Z,12.40
2023-03-22T12:22:03.983Z,12.36
2023-03-22T12:23:03.970Z,12.42
2023-03-22T12:24:03.961Z,12.50
2023-03-22T12:25:03.949Z,12.50
2023-03-22T12:26:03.940Z,12.53
2023-03-22T12:27:03.928Z,12.51
2023-03-22T12:28:03.934Z,12.55
2023-03-22T12:29:03.907Z,12.66
2023-03-22T12:30:03.897Z,12.70
2023-03-22T12:32:03.889Z,12.70
2023-03-22T12:33:03.940Z,12.71
2023-03-22T12:34:03.856Z,12.77
2023-03-22T12:35:17.148Z,12.74
2023-03-22T12:36:04.980Z,12.66
2023-03-22T12:37:03.847Z,12.84
2023-03-22T12:38:03.816Z,12.84
2023-03-22T12:40:03.795Z,12.77
2023-03-22T12:41:03.784Z,12.61
2023-03-22T12:42:03.775Z,12.58
2023-03-22T12:43:03.801Z,12.61
2023-03-22T12:44:03.763Z,12.57
2023-03-22T12:46:03.738Z,12.40
2023-03-22T12:47:03.782Z,12.40
2023-03-22T12:48:03.801Z,12.42
2023-03-22T12:49:03.758Z,12.43
2023-03-22T12:50:03.694Z,12.47
2023-03-22T12:51:03.679Z,12.39
2023-03-22T12:52:03.685Z,12.33
2023-03-22T12:53:03.687Z,12.30
2023-03-22T12:54:03.651Z,12.35
2023-03-22T12:55:03.638Z,12.35
2023-03-22T12:56:03.659Z,12.32
2023-03-22T12:58:03.611Z,12.25
2023-03-22T12:59:03.597Z,12.28
2023-03-22T13:00:03.590Z,12.28
2023-03-22T13:01:03.587Z,12.24
2023-03-22T13:02:03.591Z,12.22
2023-03-22T13:03:03.729Z,12.20
2023-03-22T13:04:03.651Z,12.18
2023-03-22T13:05:03.538Z,12.20
2023-03-22T13:06:03.533Z,12.22
2023-03-22T13:07:03.510Z,12.28
2023-03-22T13:09:03.725Z,12.39
2023-03-22T13:10:03.479Z,12.53
2023-03-22T13:11:03.472Z,12.50
2023-03-22T13:12:03.457Z,12.55
2023-03-22T13:13:03.450Z,12.51
2023-03-22T13:14:03.436Z,12.60
2023-03-22T13:15:03.424Z,12.71
2023-03-22T13:16:03.441Z,12.87
2023-03-22T13:17:03.462Z,12.85
2023-03-22T13:18:03.453Z,12.74
2023-03-22T13:19:03.384Z,12.77
2023-03-22T13:20:03.373Z,12.80
2023-03-22T13:21:03.360Z,12.77
2023-03-22T13:22:03.350Z,12.77
2023-03-22T13:23:03.358Z,12.71
2023-03-22T13:24:03.331Z,12.54
2023-03-22T13:26:03.316Z,12.58
2023-03-22T13:27:03.298Z,12.63
2023-03-22T13:28:03.509Z,12.58
2023-03-22T13:29:03.274Z,12.67
2023-03-22T13:30:03.266Z,12.67
2023-03-22T13:31:03.258Z,12.66
2023-03-22T13:33:03.371Z,12.69
2023-03-22T13:35:03.211Z,12.63
2023-03-22T13:36:04.789Z,12.67
2023-03-22T13:37:03.196Z,12.74
2023-03-22T13:38:03.211Z,12.77
2023-03-22T13:39:03.188Z,12.80
2023-03-22T13:40:03.160Z,12.80
2023-03-22T13:42:03.142Z,12.77
2023-03-22T13:43:03.330Z,12.74
2023-03-22T13:44:04.338Z,12.69
2023-03-22T13:45:03.111Z,12.69
2023-03-22T13:46:03.163Z,12.67
2023-03-22T13:47:03.098Z,12.66
2023-03-22T13:48:03.286Z,12.67
2023-03-22T13:49:03.309Z,12.70
2023-03-22T13:50:04.180Z,12.73
2023-03-22T13:51:03.045Z,12.79
2023-03-22T13:52:03.041Z,12.87
2023-03-22T13:53:03.037Z,12.88
2023-03-22T13:54:03.021Z,12.88
2023-03-22T13:55:03.021Z,12.95
2023-03-22T13:56:03.008Z,12.88
2023-03-22T13:57:03.037Z,12.79
2023-03-22T13:58:02.996Z,12.77
2023-03-22T13:59:02.965Z,12.89
2023-03-22T14:00:11.163Z,12.92
2023-03-22T14:01:04.038Z,12.96
2023-03-22T14:02:02.964Z,12.98
2023-03-22T14:03:03.049Z,12.99
2023-03-22T14:04:02.915Z,12.96
2023-03-22T14:06:02.898Z,12.99
2023-03-22T14:07:02.884Z,12.99
2023-03-22T14:08:02.876Z,13.04
2023-03-22T14:09:02.868Z,13.01
2023-03-22T14:10:02.857Z,13.04
2023-03-22T14:11:02.846Z,12.98
2023-03-22T14:12:02.833Z,12.96
2023-03-22T14:13:02.842Z,12.94
2023-03-22T14:14:02.809Z,12.95
2023-03-22T14:15:03.009Z,12.95
2023-03-22T14:16:02.849Z,12.91
2023-03-22T14:17:02.800Z,12.81
2023-03-22T14:18:02.861Z,12.74
2023-03-22T14:19:02.760Z,12.77
2023-03-22T14:20:02.767Z,12.77
2023-03-22T14:21:02.740Z,12.71
